createdAt,value
2017-05-14T00:00:19.718Z,928.11
2017-05-14T00:00:47.841Z,928.15
2017-05-14T00:01:16.067Z,928.11
2017-05-14T00:01:44.275Z,928.13
2017-05-14T00:02:12.442Z,928.13
2017-05-14T00:02:40.660Z,928.16
2017-05-14T00:03:08.933Z,928.12
2017-05-14T00:03:37.015Z,928.14
2017-05-14T00:04:05.144Z,928.14
2017-05-14T00:04:33.434Z,928.16
2017-05-14T00:05:01.728Z,928.16
2017-05-14T00:05:30.003Z,928.15
2017-05-14T00:05:58.163Z,928.17
2017-05-14T00:06:26.398Z,928.18
2017-05-14T00:06:54.700Z,928.16
2017-05-14T00:07:22.834Z,928.18
2017-05-14T00:07:50.924Z,928.15
2017-05-14T00:08:19.057Z,928.2
2017-05-14T00:08:47.300Z,928.2
2017-05-14T00:09:15.486Z,928.22
2017-05-14T00:09:43.667Z,928.2
2017-05-14T00:10:11.763Z,928.21
2017-05-14T00:10:39.947Z,928.21
2017-05-14T00:11:08.387Z,928.2
2017-05-14T00:11:36.541Z,928.18
2017-05-14T00:12:04.614Z,928.18
2017-05-14T00:12:32.876Z,928.18
2017-05-14T00:13:01.141Z,928.18
2017-05-14T00:13:29.019Z,928.19
2017-05-14T00:13:57.210Z,928.18
2017-05-14T00:14:25.479Z,928.18
2017-05-14T00:14:53.760Z,928.2
2017-05-14T00:15:21.835Z,928.19
2017-05-14T00:15:50.017Z,928.24
2017-05-14T00:16:18.635Z,928.21
2017-05-14T00:16:46.779Z,928.25
2017-05-14T00:17:15.046Z,928.24
2017-05-14T00:17:43.267Z,928.21
2017-05-14T00:18:11.511Z,928.24
2017-05-14T00:18:39.766Z,928.22
2017-05-14T00:19:07.988Z,928.23
2017-05-14T00:19:36.210Z,928.25
2017-05-14T00:20:04.403Z,928.22
2017-05-14T00:20:32.478Z,928.22
2017-05-14T00:21:00.717Z,928.22
2017-05-14T00:21:29.227Z,928.21
2017-05-14T00:21:57.382Z,928.21
2017-05-14T00:22:25.531Z,928.25
2017-05-14T00:22:53.763Z,928.24
2017-05-14T00:23:21.952Z,928.28
2017-05-14T00:23:50.235Z,928.26
2017-05-14T00:24:18.522Z,928.28
2017-05-14T00:24:46.524Z,928.3
2017-05-14T00:25:14.745Z,928.26
2017-05-14T00:25:42.921Z,928.3
2017-05-14T00:26:11.125Z,928.32
2017-05-14T00:26:39.273Z,928.32
2017-05-14T00:27:07.392Z,928.31
2017-05-14T00:27:35.568Z,928.31
2017-05-14T00:28:03.704Z,928.32
2017-05-14T00:28:32.019Z,928.28
2017-05-14T00:29:00.189Z,928.31
2017-05-14T00:29:28.408Z,928.33
2017-05-14T00:29:56.602Z,928.33
2017-05-14T00:30:24.686Z,928.32
2017-05-14T00:30:52.946Z,928.35
2017-05-14T00:31:21.386Z,928.32
2017-05-14T00:31:49.545Z,928.33
2017-05-14T00:32:17.722Z,928.32
2017-05-14T00:32:45.821Z,928.31
2017-05-14T00:33:14.081Z,928.32
2017-05-14T00:33:42.297Z,928.33
2017-05-14T00:34:10.552Z,928.33
2017-05-14T00:34:38.689Z,928.34
2017-05-14T00:35:06.847Z,928.32
2017-05-14T00:35:35.063Z,928.29
2017-05-14T00:36:03.132Z,928.28
2017-05-14T00:36:31.315Z,928.3
2017-05-14T00:36:59.552Z,928.31
2017-05-14T00:37:27.812Z,928.35
2017-05-14T00:37:55.942Z,928.33
2017-05-14T00:38:24.140Z,928.33
2017-05-14T00:38:52.287Z,928.34
2017-05-14T00:39:20.459Z,928.35
2017-05-14T00:39:48.708Z,928.36
2017-05-14T00:40:16.871Z,928.35
2017-05-14T00:40:44.975Z,928.38
2017-05-14T00:41:13.129Z,928.37
2017-05-14T00:41:41.453Z,928.38
2017-05-14T00:42:09.709Z,928.33
2017-05-14T00:42:37.898Z,928.37
2017-05-14T00:43:06.225Z,928.34
2017-05-14T00:43:34.319Z,928.31
2017-05-14T00:44:02.397Z,928.33
2017-05-14T00:44:30.673Z,928.35
2017-05-14T00:44:58.828Z,928.35
2017-05-14T00:45:27.036Z,928.28
2017-05-14T00:45:55.272Z,928.3
2017-05-14T00:46:23.329Z,928.31
2017-05-14T00:46:51.735Z,928.33
2017-05-14T00:47:19.930Z,928.32
2017-05-14T00:47:48.077Z,928.29
2017-05-14T00:48:16.356Z,928.31
2017-05-14T00:48:44.578Z,928.26
2017-05-14T00:49:12.808Z,928.23
2017-05-14T00:49:41.127Z,928.25
2017-05-14T00:50:09.192Z,928.25
2017-05-14T00:50:37.411Z,928.21
2017-05-14T00:51:05.752Z,928.19
2017-05-14T00:51:33.920Z,928.21
2017-05-14T00:52:02.234Z,928.16
2017-05-14T00:52:30.277Z,928.14
2017-05-14T00:52:58.606Z,928.13
2017-05-14T00:53:26.626Z,928.12
2017-05-14T00:53:54.787Z,928.09
2017-05-14T00:54:22.966Z,928.11
2017-05-14T00:54:51.039Z,928.1
2017-05-14T00:55:19.285Z,928.1
2017-05-14T00:55:47.364Z,928.04
2017-05-14T00:56:15.609Z,928.09
2017-05-14T00:56:43.812Z,928.09
2017-05-14T00:57:11.702Z,928.05
2017-05-14T00:57:39.810Z,928.05
2017-05-14T00:58:08.083Z,928.03
2017-05-14T00:58:36.258Z,928.09
2017-05-14T00:59:04.529Z,928.05
2017-05-14T00:59:32.800Z,928.03
2017-05-14T01:00:00.951Z,928.1
2017-05-14T01:00:29.192Z,928.09
2017-05-14T01:00:57.271Z,928.08
2017-05-14T01:01:25.437Z,928.11
2017-05-14T01:01:53.810Z,928.11
2017-05-14T01:02:22.037Z,928.11
2017-05-14T01:02:50.165Z,928.07
2017-05-14T01:03:18.295Z,928.09
2017-05-14T01:03:46.574Z,928.07
2017-05-14T01:04:14.854Z,928.09
2017-05-14T01:04:43.173Z,928.07
2017-05-14T01:05:11.390Z,928.1
2017-05-14T01:05:39.475Z,928.06
2017-05-14T01:06:07.722Z,928.05
2017-05-14T01:06:35.896Z,928.04
2017-05-14T01:07:04.164Z,928.01
2017-05-14T01:07:32.323Z,928.02
2017-05-14T01:08:00.617Z,928
2017-05-14T01:08:28.846Z,927.98
2017-05-14T01:08:57.128Z,927.96
2017-05-14T01:09:25.203Z,928
2017-05-14T01:09:53.398Z,927.96
2017-05-14T01:10:21.683Z,927.95
2017-05-14T01:10:49.736Z,927.99
2017-05-14T01:11:18.018Z,928.01
2017-05-14T01:11:46.240Z,927.99
2017-05-14T01:12:14.424Z,928.02
2017-05-14T01:12:42.425Z,928.05
2017-05-14T01:13:10.575Z,928.05
2017-05-14T01:13:38.670Z,928.02
2017-05-14T01:14:06.928Z,928.03
2017-05-14T01:14:35.050Z,928.1
2017-05-14T01:15:03.125Z,928.08
2017-05-14T01:15:31.253Z,928.07
2017-05-14T01:15:59.524Z,928.07
2017-05-14T01:16:27.686Z,928.07
2017-05-14T01:16:55.911Z,928.04
2017-05-14T01:17:24.223Z,928.02
2017-05-14T01:17:52.457Z,927.98
2017-05-14T01:18:20.710Z,927.99
2017-05-14T01:18:48.972Z,927.95
2017-05-14T01:19:17.128Z,927.97
2017-05-14T01:19:45.491Z,927.92
2017-05-14T01:20:13.660Z,927.91
2017-05-14T01:20:41.918Z,927.93
2017-05-14T01:21:10.150Z,927.89
2017-05-14T01:21:38.454Z,927.88
2017-05-14T01:22:06.922Z,927.84
2017-05-14T01:22:35.206Z,927.85
2017-05-14T01:23:03.305Z,927.86
2017-05-14T01:23:31.632Z,927.86
2017-05-14T01:23:59.679Z,927.86
2017-05-14T01:24:27.902Z,927.82
2017-05-14T01:24:56.092Z,927.83
2017-05-14T01:25:24.241Z,927.83
2017-05-14T01:25:52.400Z,927.82
2017-05-14T01:26:20.669Z,927.87
2017-05-14T01:26:48.898Z,927.81
2017-05-14T01:27:17.308Z,927.8
2017-05-14T01:27:45.634Z,927.83
2017-05-14T01:28:14.117Z,927.85
2017-05-14T01:28:42.274Z,927.82
2017-05-14T01:29:10.542Z,927.83
2017-05-14T01:29:38.793Z,927.84
2017-05-14T01:30:06.965Z,927.88
2017-05-14T01:30:35.191Z,927.86
2017-05-14T01:31:03.375Z,927.84
2017-05-14T01:31:31.498Z,927.83
2017-05-14T01:31:59.711Z,927.83
2017-05-14T01:32:28.331Z,927.82
2017-05-14T01:32:56.462Z,927.83
2017-05-14T01:33:24.621Z,927.86
2017-05-14T01:33:52.899Z,927.85
2017-05-14T01:34:21.080Z,927.84
2017-05-14T01:34:49.405Z,927.88
2017-05-14T01:35:17.714Z,927.83
2017-05-14T01:35:45.795Z,927.89
2017-05-14T01:36:13.970Z,927.88
2017-05-14T01:36:42.124Z,927.88
2017-05-14T01:37:10.250Z,927.9
2017-05-14T01:37:38.534Z,927.9
2017-05-14T01:38:06.663Z,927.92
2017-05-14T01:38:34.926Z,927.89
2017-05-14T01:39:03.037Z,927.91
2017-05-14T01:39:31.342Z,927.93
2017-05-14T01:39:59.602Z,927.93
2017-05-14T01:40:27.691Z,927.93
2017-05-14T01:40:55.970Z,927.91
2017-05-14T01:41:24.117Z,927.92
2017-05-14T01:41:52.309Z,927.93
2017-05-14T01:42:20.406Z,927.92
2017-05-14T01:42:48.779Z,927.9
2017-05-14T01:43:17.052Z,927.89
2017-05-14T01:43:45.166Z,927.92
2017-05-14T01:44:13.430Z,927.94
2017-05-14T01:44:41.704Z,927.9
2017-05-14T01:45:09.704Z,927.95
2017-05-14T01:45:37.902Z,927.93
2017-05-14T01:46:06.180Z,927.96
2017-05-14T01:46:34.593Z,927.96
2017-05-14T01:47:02.883Z,927.97
2017-05-14T01:47:31.071Z,927.98
2017-05-14T01:47:59.277Z,927.98
2017-05-14T01:48:27.481Z,927.97
2017-05-14T01:48:55.648Z,927.95
2017-05-14T01:49:24.684Z,927.95
2017-05-14T01:49:52.961Z,927.95
2017-05-14T01:50:21.250Z,927.95
2017-05-14T01:50:49.341Z,927.97
2017-05-14T01:51:17.668Z,927.91
2017-05-14T01:51:45.642Z,927.95
2017-05-14T01:52:13.978Z,927.93
2017-05-14T01:52:42.197Z,927.96
2017-05-14T01:53:10.122Z,927.95
2017-05-14T01:53:38.508Z,927.92
2017-05-14T01:54:06.718Z,927.94
2017-05-14T01:54:34.956Z,927.94
2017-05-14T01:55:03.172Z,927.95
2017-05-14T01:55:31.218Z,927.91
2017-05-14T01:55:59.399Z,927.93
2017-05-14T01:56:27.565Z,927.95
2017-05-14T01:56:55.637Z,927.97
2017-05-14T01:57:23.861Z,927.94
2017-05-14T01:57:52.239Z,927.97
2017-05-14T01:58:20.507Z,927.9
2017-05-14T01:58:48.775Z,927.93
2017-05-14T01:59:16.998Z,927.94
2017-05-14T01:59:45.026Z,927.93
2017-05-14T02:00:13.253Z,927.95
2017-05-14T02:00:41.435Z,928
2017-05-14T02:01:09.817Z,928.02
2017-05-14T02:01:38.129Z,928.01
2017-05-14T02:02:06.411Z,928.02
2017-05-14T02:02:34.532Z,928.02
2017-05-14T02:03:02.929Z,928.03
2017-05-14T02:03:31.136Z,928.04
2017-05-14T02:03:59.347Z,928.04
2017-05-14T02:04:27.620Z,928.04
2017-05-14T02:04:55.714Z,928.01
2017-05-14T02:05:23.889Z,928.04
2017-05-14T02:05:52.164Z,928.04
2017-05-14T02:06:20.435Z,928.04
2017-05-14T02:06:48.688Z,928.05
2017-05-14T02:07:16.842Z,928.03
2017-05-14T02:07:44.992Z,928.07
2017-05-14T02:08:13.182Z,928.05
2017-05-14T02:08:41.389Z,928.06
2017-05-14T02:09:09.572Z,928.06
2017-05-14T02:09:37.870Z,928.07
2017-05-14T02:10:05.910Z,928.06
2017-05-14T02:10:34.211Z,928.09
2017-05-14T02:11:02.504Z,928.06
2017-05-14T02:11:30.826Z,928.1
2017-05-14T02:11:59.075Z,928.05
2017-05-14T02:12:27.388Z,928.07
2017-05-14T02:12:55.782Z,928.08
2017-05-14T02:13:23.931Z,928.07
2017-05-14T02:13:52.072Z,928.07
2017-05-14T02:14:20.126Z,928.09
2017-05-14T02:14:48.345Z,928.07
2017-05-14T02:15:16.463Z,928.06
2017-05-14T02:15:44.518Z,928.05
2017-05-14T02:16:12.798Z,928.1
2017-05-14T02:16:40.932Z,928.06
2017-05-14T02:17:08.897Z,928.06
2017-05-14T02:17:36.975Z,928.06
2017-05-14T02:18:05.331Z,928.06
2017-05-14T02:18:33.560Z,928.08
2017-05-14T02:19:01.870Z,928.08
2017-05-14T02:19:30.095Z,928.11
2017-05-14T02:19:58.337Z,928.08
2017-05-14T02:20:26.581Z,928.12
2017-05-14T02:20:54.677Z,928.12
2017-05-14T02:21:22.995Z,928.11
2017-05-14T02:21:51.290Z,928.13
2017-05-14T02:22:19.507Z,928.12
2017-05-14T02:22:47.697Z,928.12
2017-05-14T02:23:15.947Z,928.09
2017-05-14T02:23:44.234Z,928.1
2017-05-14T02:24:12.471Z,928.09
2017-05-14T02:24:40.623Z,928.14
2017-05-14T02:25:08.721Z,928.1
2017-05-14T02:25:36.973Z,928.12
2017-05-14T02:26:05.122Z,928.13
2017-05-14T02:26:33.245Z,928.09
2017-05-14T02:27:01.165Z,928.09
2017-05-14T02:27:29.237Z,928.1
2017-05-14T02:27:57.547Z,928.06
2017-05-14T02:28:25.822Z,928.03
2017-05-14T02:28:53.886Z,928.03
2017-05-14T02:29:22.144Z,928.03
2017-05-14T02:29:50.388Z,928.02
2017-05-14T02:30:18.369Z,928
2017-05-14T02:30:46.700Z,928.02
2017-05-14T02:31:14.930Z,928.01
2017-05-14T02:31:43.184Z,928.06
2017-05-14T02:32:11.478Z,928.05
2017-05-14T02:32:39.686Z,928.04
2017-05-14T02:33:07.949Z,928.07
2017-05-14T02:33:36.126Z,928.06
2017-05-14T02:34:04.464Z,928.11
2017-05-14T02:34:32.599Z,928.13
2017-05-14T02:35:00.734Z,928.13
2017-05-14T02:35:29.008Z,928.12
2017-05-14T02:35:57.081Z,928.12
2017-05-14T02:36:25.447Z,928.12
2017-05-14T02:36:53.702Z,928.09
2017-05-14T02:37:21.864Z,928.06
2017-05-14T02:37:50.000Z,928.06
2017-05-14T02:38:18.429Z,928
2017-05-14T02:38:46.642Z,927.97
2017-05-14T02:39:14.653Z,927.98
2017-05-14T02:39:42.887Z,927.96
2017-05-14T02:40:10.879Z,927.9
2017-05-14T02:40:39.056Z,927.9
2017-05-14T02:41:07.179Z,927.88
2017-05-14T02:41:35.232Z,927.91
2017-05-14T02:42:03.350Z,927.87
2017-05-14T02:42:31.547Z,927.86
2017-05-14T02:42:59.823Z,927.86
2017-05-14T02:43:28.101Z,927.83
2017-05-14T02:43:56.398Z,927.82
2017-05-14T02:44:24.684Z,927.83
2017-05-14T02:44:52.954Z,927.78
2017-05-14T02:45:21.173Z,927.79
2017-05-14T02:45:49.522Z,927.76
2017-05-14T02:46:17.736Z,927.72
2017-05-14T02:46:45.943Z,927.75
2017-05-14T02:47:14.192Z,927.71
2017-05-14T02:47:42.454Z,927.73
2017-05-14T02:48:10.704Z,927.69
2017-05-14T02:48:39.045Z,927.66
2017-05-14T02:49:07.359Z,927.72
2017-05-14T02:49:35.622Z,927.71
2017-05-14T02:50:03.765Z,927.7
2017-05-14T02:50:31.870Z,927.68
2017-05-14T02:51:00.035Z,927.67
2017-05-14T02:51:28.158Z,927.7
2017-05-14T02:51:56.387Z,927.68
2017-05-14T02:52:24.662Z,927.66
2017-05-14T02:52:52.886Z,927.63
2017-05-14T02:53:21.008Z,927.63
2017-05-14T02:53:49.263Z,927.61
2017-05-14T02:54:17.437Z,927.62
2017-05-14T02:54:45.523Z,927.62
2017-05-14T02:55:13.746Z,927.57
2017-05-14T02:55:41.930Z,927.55
2017-05-14T02:56:10.135Z,927.6
2017-05-14T02:56:38.235Z,927.56
2017-05-14T02:57:06.483Z,927.52
2017-05-14T02:57:34.510Z,927.54
2017-05-14T02:58:02.508Z,927.53
2017-05-14T02:58:30.764Z,927.54
2017-05-14T02:58:58.981Z,927.54
2017-05-14T02:59:27.146Z,927.53
2017-05-14T02:59:55.423Z,927.52
2017-05-14T03:00:23.493Z,927.5
2017-05-14T03:00:51.593Z,927.51
2017-05-14T03:01:19.658Z,927.48
2017-05-14T03:01:47.833Z,927.48
2017-05-14T03:02:16.075Z,927.44
2017-05-14T03:02:44.055Z,927.46
2017-05-14T03:03:12.348Z,927.4
2017-05-14T03:03:40.778Z,927.39
2017-05-14T03:04:08.972Z,927.39
2017-05-14T03:04:37.141Z,927.4
2017-05-14T03:05:05.137Z,927.4
2017-05-14T03:05:33.254Z,927.39
2017-05-14T03:06:01.528Z,927.39
2017-05-14T03:06:29.640Z,927.36
2017-05-14T03:06:57.738Z,927.4
2017-05-14T03:07:25.874Z,927.37
2017-05-14T03:07:54.151Z,927.39
2017-05-14T03:08:22.181Z,927.36
2017-05-14T03:08:50.461Z,927.4
2017-05-14T03:09:18.544Z,927.4
2017-05-14T03:09:46.801Z,927.34
2017-05-14T03:10:15.111Z,927.31
2017-05-14T03:10:43.387Z,927.28
2017-05-14T03:11:11.554Z,927.29
2017-05-14T03:11:39.812Z,927.21
2017-05-14T03:12:07.934Z,927.19
2017-05-14T03:12:36.198Z,927.21
2017-05-14T03:13:04.371Z,927.19
2017-05-14T03:13:32.504Z,927.21
2017-05-14T03:14:00.759Z,927.19
2017-05-14T03:14:28.925Z,927.18
2017-05-14T03:14:56.877Z,927.23
2017-05-14T03:15:25.085Z,927.17
2017-05-14T03:15:53.181Z,927.22
2017-05-14T03:16:21.253Z,927.17
2017-05-14T03:16:49.263Z,927.15
2017-05-14T03:17:17.358Z,927.18
2017-05-14T03:17:45.534Z,927.16
2017-05-14T03:18:13.595Z,927.11
2017-05-14T03:18:41.719Z,927.11
2017-05-14T03:19:09.792Z,927.11
2017-05-14T03:19:38.071Z,927.1
2017-05-14T03:20:06.180Z,927.14
2017-05-14T03:20:34.262Z,927.13
2017-05-14T03:21:02.459Z,927.17
2017-05-14T03:21:30.681Z,927.16
2017-05-14T03:21:58.531Z,927.18
2017-05-14T03:22:26.833Z,927.16
2017-05-14T03:22:54.958Z,927.21
2017-05-14T03:23:23.142Z,927.2
2017-05-14T03:23:51.403Z,927.2
2017-05-14T03:24:19.625Z,927.22
2017-05-14T03:24:47.710Z,927.19
2017-05-14T03:25:15.931Z,927.17
2017-05-14T03:25:44.207Z,927.17
2017-05-14T03:26:12.399Z,927.2
2017-05-14T03:26:40.709Z,927.19
2017-05-14T03:27:08.784Z,927.17
2017-05-14T03:27:37.045Z,927.2
2017-05-14T03:28:05.296Z,927.17
2017-05-14T03:28:33.195Z,927.22
2017-05-14T03:29:01.538Z,927.18
2017-05-14T03:29:29.811Z,927.18
2017-05-14T03:29:58.074Z,927.2
2017-05-14T03:30:26.178Z,927.24
2017-05-14T03:30:54.402Z,927.18
2017-05-14T03:31:22.506Z,927.22
2017-05-14T03:31:50.601Z,927.16
2017-05-14T03:32:18.787Z,927.21
2017-05-14T03:32:46.921Z,927.17
2017-05-14T03:33:15.151Z,927.21
2017-05-14T03:33:43.471Z,927.23
2017-05-14T03:34:11.712Z,927.21
2017-05-14T03:34:39.817Z,927.19
2017-05-14T03:35:08.006Z,927.21
2017-05-14T03:35:36.281Z,927.21
2017-05-14T03:36:04.563Z,927.21
2017-05-14T03:36:32.865Z,927.24
2017-05-14T03:37:01.148Z,927.25
2017-05-14T03:37:29.401Z,927.24
2017-05-14T03:37:57.488Z,927.23
2017-05-14T03:38:25.680Z,927.24
2017-05-14T03:38:53.729Z,927.31
2017-05-14T03:39:21.882Z,927.26
2017-05-14T03:39:50.000Z,927.27
2017-05-14T03:40:18.193Z,927.27
2017-05-14T03:40:46.312Z,927.28
2017-05-14T03:41:14.597Z,927.3
2017-05-14T03:41:42.787Z,927.3
2017-05-14T03:42:11.055Z,927.3
2017-05-14T03:42:39.262Z,927.29
2017-05-14T03:43:07.464Z,927.29
2017-05-14T03:43:35.588Z,927.28
2017-05-14T03:44:03.869Z,927.29
2017-05-14T03:44:32.112Z,927.24
2017-05-14T03:45:00.357Z,927.29
2017-05-14T03:45:28.571Z,927.24
2017-05-14T03:45:56.695Z,927.3
2017-05-14T03:46:24.878Z,927.28
2017-05-14T03:46:53.176Z,927.26
2017-05-14T03:47:21.382Z,927.27
2017-05-14T03:47:49.605Z,927.28
2017-05-14T03:48:17.793Z,927.27
2017-05-14T03:48:45.888Z,927.27
2017-05-14T03:49:14.097Z,927.25
2017-05-14T03:49:42.359Z,927.2
2017-05-14T03:50:10.643Z,927.2
2017-05-14T03:50:38.766Z,927.19
2017-05-14T03:51:06.858Z,927.19
2017-05-14T03:51:34.966Z,927.18
2017-05-14T03:52:03.239Z,927.16
2017-05-14T03:52:31.387Z,927.13
2017-05-14T03:52:59.684Z,927.07
2017-05-14T03:53:27.933Z,927.05
2017-05-14T03:53:56.211Z,927.06
2017-05-14T03:54:24.435Z,927.02
2017-05-14T03:54:52.620Z,926.98
2017-05-14T03:55:20.956Z,926.96
2017-05-14T03:55:49.240Z,926.94
2017-05-14T03:56:17.317Z,926.92
2017-05-14T03:56:45.551Z,926.9
2017-05-14T03:57:13.823Z,926.86
2017-05-14T03:57:42.089Z,926.84
2017-05-14T03:58:10.213Z,926.89
2017-05-14T03:58:38.402Z,926.9
2017-05-14T03:59:06.554Z,926.93
2017-05-14T03:59:34.830Z,926.98
2017-05-14T04:00:03.111Z,926.99
2017-05-14T04:00:31.370Z,927.02
2017-05-14T04:00:59.651Z,927.02
2017-05-14T04:01:27.933Z,927.05
2017-05-14T04:01:56.201Z,927.04
2017-05-14T04:02:24.277Z,927.03
2017-05-14T04:02:52.573Z,927.08
2017-05-14T04:03:20.730Z,927.11
2017-05-14T04:03:48.889Z,927.09
2017-05-14T04:04:17.024Z,927.1
2017-05-14T04:04:45.161Z,927.1
2017-05-14T04:05:13.424Z,927.08
2017-05-14T04:05:41.582Z,927.07
2017-05-14T04:06:09.887Z,927.11
2017-05-14T04:06:37.918Z,927.05
2017-05-14T04:07:06.193Z,927.06
2017-05-14T04:07:34.167Z,926.99
2017-05-14T04:08:02.352Z,927
2017-05-14T04:08:30.446Z,926.98
2017-05-14T04:08:58.732Z,926.95
2017-05-14T04:09:26.897Z,926.89
2017-05-14T04:09:55.297Z,926.87
2017-05-14T04:10:23.399Z,926.88
2017-05-14T04:10:51.487Z,926.91
2017-05-14T04:11:19.693Z,926.92
2017-05-14T04:11:47.930Z,926.88
2017-05-14T04:12:16.098Z,926.88
2017-05-14T04:12:44.465Z,926.93
2017-05-14T04:13:12.731Z,926.89
2017-05-14T04:13:40.946Z,926.9
2017-05-14T04:14:09.108Z,926.88
2017-05-14T04:14:37.310Z,926.89
2017-05-14T04:15:05.577Z,926.88
2017-05-14T04:15:33.641Z,926.89
2017-05-14T04:16:01.932Z,926.88
2017-05-14T04:16:30.121Z,926.89
2017-05-14T04:16:58.316Z,926.87
2017-05-14T04:17:26.502Z,926.85
2017-05-14T04:17:54.780Z,926.87
2017-05-14T04:18:22.964Z,926.84
2017-05-14T04:18:51.227Z,926.83
2017-05-14T04:19:19.534Z,926.79
2017-05-14T04:19:47.837Z,926.79
2017-05-14T04:20:16.064Z,926.79
2017-05-14T04:20:44.279Z,926.79
2017-05-14T04:21:12.282Z,926.78
2017-05-14T04:21:40.493Z,926.74
2017-05-14T04:22:08.681Z,926.76
2017-05-14T04:22:36.790Z,926.76
2017-05-14T04:23:05.028Z,926.73
2017-05-14T04:23:33.142Z,926.77
2017-05-14T04:24:01.408Z,926.77
2017-05-14T04:24:29.491Z,926.74
2017-05-14T04:24:57.720Z,926.76
2017-05-14T04:25:26.027Z,926.78
2017-05-14T04:25:54.294Z,926.79
2017-05-14T04:26:22.573Z,926.78
2017-05-14T04:26:50.696Z,926.77
2017-05-14T04:27:18.657Z,926.75
2017-05-14T04:27:46.906Z,926.8
2017-05-14T04:28:15.228Z,926.74
2017-05-14T04:28:43.395Z,926.75
2017-05-14T04:29:11.581Z,926.73
2017-05-14T04:29:39.831Z,926.71
2017-05-14T04:30:08.100Z,926.68
2017-05-14T04:30:36.305Z,926.7
2017-05-14T04:31:04.568Z,926.72
2017-05-14T04:31:32.721Z,926.71
2017-05-14T04:32:00.747Z,926.65
2017-05-14T04:32:28.850Z,926.65
2017-05-14T04:32:57.103Z,926.67
2017-05-14T04:33:25.293Z,926.64
2017-05-14T04:33:53.543Z,926.67
2017-05-14T04:34:21.707Z,926.66
2017-05-14T04:34:49.810Z,926.62
2017-05-14T04:35:18.112Z,926.65
2017-05-14T04:35:46.407Z,926.62
2017-05-14T04:36:14.580Z,926.61
2017-05-14T04:36:42.858Z,926.58
2017-05-14T04:37:11.123Z,926.56
2017-05-14T04:37:39.241Z,926.55
2017-05-14T04:38:07.430Z,926.53
2017-05-14T04:38:35.639Z,926.52
2017-05-14T04:39:03.911Z,926.51
2017-05-14T04:39:32.066Z,926.48
2017-05-14T04:40:00.345Z,926.48
2017-05-14T04:40:28.681Z,926.45
2017-05-14T04:40:56.951Z,926.41
2017-05-14T04:41:25.186Z,926.41
2017-05-14T04:41:53.284Z,926.41
2017-05-14T04:42:21.607Z,926.41
2017-05-14T04:42:49.933Z,926.4
2017-05-14T04:43:18.107Z,926.38
2017-05-14T04:43:46.177Z,926.38
2017-05-14T04:44:14.414Z,926.38
2017-05-14T04:44:42.573Z,926.36
2017-05-14T04:45:10.718Z,926.41
2017-05-14T04:45:38.821Z,926.4
2017-05-14T04:46:06.943Z,926.4
2017-05-14T04:46:35.251Z,926.37
2017-05-14T04:47:03.239Z,926.4
2017-05-14T04:47:31.519Z,926.33
2017-05-14T04:47:59.614Z,926.35
2017-05-14T04:48:27.872Z,926.34
2017-05-14T04:48:55.971Z,926.37
2017-05-14T04:49:24.167Z,926.4
2017-05-14T04:49:52.289Z,926.4
2017-05-14T04:50:20.661Z,926.43
2017-05-14T04:50:48.938Z,926.43
2017-05-14T04:51:17.108Z,926.45
2017-05-14T04:51:45.265Z,926.48
2017-05-14T04:52:13.364Z,926.48
2017-05-14T04:52:41.543Z,926.47
2017-05-14T04:53:09.621Z,926.47
2017-05-14T04:53:37.835Z,926.46
2017-05-14T04:54:05.985Z,926.45
2017-05-14T04:54:34.144Z,926.47
2017-05-14T04:55:02.308Z,926.46
2017-05-14T04:55:30.685Z,926.48
2017-05-14T04:55:58.868Z,926.46
2017-05-14T04:56:27.209Z,926.47
2017-05-14T04:56:55.208Z,926.45
2017-05-14T04:57:23.425Z,926.43
2017-05-14T04:57:51.618Z,926.45
2017-05-14T04:58:19.726Z,926.45
2017-05-14T04:58:47.865Z,926.48
2017-05-14T04:59:16.062Z,926.43
2017-05-14T04:59:44.331Z,926.37
2017-05-14T05:00:12.612Z,926.42
2017-05-14T05:00:40.946Z,926.4
2017-05-14T05:01:09.004Z,926.37
2017-05-14T05:01:37.090Z,926.4
2017-05-14T05:02:05.426Z,926.41
2017-05-14T05:02:33.614Z,926.41
2017-05-14T05:03:01.905Z,926.44
2017-05-14T05:03:30.064Z,926.41
2017-05-14T05:03:58.184Z,926.42
2017-05-14T05:04:26.296Z,926.44
2017-05-14T05:04:54.379Z,926.43
2017-05-14T05:05:22.673Z,926.39
2017-05-14T05:05:50.955Z,926.38
2017-05-14T05:06:19.203Z,926.37
2017-05-14T05:06:47.313Z,926.42
2017-05-14T05:07:15.573Z,926.33
2017-05-14T05:07:43.716Z,926.33
2017-05-14T05:08:11.984Z,926.34
2017-05-14T05:08:40.133Z,926.31
2017-05-14T05:09:08.404Z,926.33
2017-05-14T05:09:36.678Z,926.39
2017-05-14T05:10:04.740Z,926.32
2017-05-14T05:10:32.973Z,926.36
2017-05-14T05:11:01.190Z,926.33
2017-05-14T05:11:29.481Z,926.35
2017-05-14T05:11:57.733Z,926.27
2017-05-14T05:12:26.044Z,926.3
2017-05-14T05:12:54.324Z,926.32
2017-05-14T05:13:22.566Z,926.26
2017-05-14T05:13:50.663Z,926.22
2017-05-14T05:14:18.983Z,926.28
2017-05-14T05:14:47.180Z,926.24
2017-05-14T05:15:15.487Z,926.23
2017-05-14T05:15:43.859Z,926.24
2017-05-14T05:16:12.167Z,926.18
2017-05-14T05:16:40.412Z,926.12
2017-05-14T05:17:08.614Z,926.14
2017-05-14T05:17:36.792Z,926.16
2017-05-14T05:18:04.951Z,926.15
2017-05-14T05:18:33.096Z,926.13
2017-05-14T05:19:01.160Z,926.1
2017-05-14T05:19:29.190Z,926.12
2017-05-14T05:19:57.465Z,926.09
2017-05-14T05:20:25.560Z,926.08
2017-05-14T05:20:53.887Z,926.05
2017-05-14T05:21:22.113Z,926.03
2017-05-14T05:21:50.235Z,926.01
2017-05-14T05:22:18.471Z,926.01
2017-05-14T05:22:46.572Z,925.97
2017-05-14T05:23:14.740Z,925.97
2017-05-14T05:23:43.029Z,925.92
2017-05-14T05:24:11.275Z,925.88
2017-05-14T05:24:39.491Z,925.87
2017-05-14T05:25:07.782Z,925.84
2017-05-14T05:25:36.026Z,925.84
2017-05-14T05:26:04.440Z,925.82
2017-05-14T05:26:32.712Z,925.75
2017-05-14T05:27:01.000Z,925.76
2017-05-14T05:27:29.134Z,925.76
2017-05-14T05:27:57.391Z,925.76
2017-05-14T05:28:25.676Z,925.74
2017-05-14T05:28:53.816Z,925.72
2017-05-14T05:29:22.084Z,925.69
2017-05-14T05:29:50.381Z,925.71
2017-05-14T05:30:18.545Z,925.67
2017-05-14T05:30:46.765Z,925.67
2017-05-14T05:31:15.000Z,925.69
2017-05-14T05:31:43.256Z,925.67
2017-05-14T05:32:11.511Z,925.69
2017-05-14T05:32:39.608Z,925.73
2017-05-14T05:33:07.934Z,925.73
2017-05-14T05:33:36.144Z,925.74
2017-05-14T05:34:04.204Z,925.71
2017-05-14T05:34:32.330Z,925.74
2017-05-14T05:35:00.556Z,925.75
2017-05-14T05:35:28.808Z,925.74
2017-05-14T05:35:56.939Z,925.76
2017-05-14T05:36:25.033Z,925.77
2017-05-14T05:36:53.227Z,925.74
2017-05-14T05:37:21.271Z,925.71
2017-05-14T05:37:49.440Z,925.79
2017-05-14T05:38:17.511Z,925.73
2017-05-14T05:38:45.690Z,925.76
2017-05-14T05:39:13.781Z,925.77
2017-05-14T05:39:41.939Z,925.75
2017-05-14T05:40:10.112Z,925.78
2017-05-14T05:40:38.143Z,925.75
2017-05-14T05:41:06.547Z,925.71
2017-05-14T05:41:34.853Z,925.79
2017-05-14T05:42:03.076Z,925.72
2017-05-14T05:42:31.166Z,925.72
2017-05-14T05:42:59.503Z,925.72
2017-05-14T05:43:27.700Z,925.68
2017-05-14T05:43:55.862Z,925.7
2017-05-14T05:44:24.091Z,925.69
2017-05-14T05:44:52.265Z,925.67
2017-05-14T05:45:20.525Z,925.68
2017-05-14T05:45:48.662Z,925.66
2017-05-14T05:46:16.959Z,925.68
2017-05-14T05:46:45.241Z,925.66
2017-05-14T05:47:13.394Z,925.65
2017-05-14T05:47:41.516Z,925.64
2017-05-14T05:48:09.786Z,925.57
2017-05-14T05:48:37.904Z,925.58
2017-05-14T05:49:06.100Z,925.56
2017-05-14T05:49:34.321Z,925.55
2017-05-14T05:50:02.738Z,925.49
2017-05-14T05:50:30.926Z,925.45
2017-05-14T05:50:59.098Z,925.47
2017-05-14T05:51:27.345Z,925.45
2017-05-14T05:51:55.616Z,925.42
2017-05-14T05:52:23.842Z,925.36
2017-05-14T05:52:52.000Z,925.37
2017-05-14T05:53:20.245Z,925.37